Terminal Aerodrome Forecast
Issued by NWS North Platte, NE

Home | Current Version | Previous Version | Graphics & Text | Print | Product List | Glossary On
Versions: 1 2 3 4 5 6 7 8 9 10 11 12 13 14 15
000
FTUS43 KLBF 280633 AAA
TAFVTN
TAF AMD
KVTN 280633Z 2807/2906 35014G22KT P6SM SCT050 BKN100
     FM281100 31019G29KT P6SM SCT100 SCT250
     FM290100 32009KT P6SM SKC=

USA.gov is the U.S. government's official web portal to all federal, state and local government web resources and services.